Time,TemperatureF,DewpointF,PressureIn,WindDirection,WindDirectionDegrees,WindSpeedMPH,WindSpeedGustMPH,Humidity,HourlyPrecipIn,Conditions,Clouds,dailyrainin,SoftwareType,DateUTC
2013-05-23 00:01:00,72.8,67.7,29.77,South,186,2.0,3.0,84,0.00,,---,0.00,VWS V14.00,2013-05-23 04:01:00,
2013-05-23 00:02:00,72.8,67.7,29.77,South,188,2.0,3.0,84,0.00,,---,0.00,VWS V14.00,2013-05-23 04:02:00,
2013-05-23 00:03:00,72.8,67.7,29.77,SSW,195,1.0,5.0,84,0.00,,---,0.00,VWS V14.00,2013-05-23 04:03:00,
2013-05-23 00:08:00,72.8,67.7,29.77,SSE,166,0.0,3.0,84,0.00,,---,0.00,VWS V14.00,2013-05-23 04:08:00,
2013-05-23 00:13:00,72.7,67.9,29.77,South,174,0.0,2.0,85,0.00,,---,0.00,VWS V14.00,2013-05-23 04:13:00,
2013-05-23 00:18:00,72.6,67.8,29.77,South,173,0.0,0.0,85,0.00,,---,0.00,VWS V14.00,2013-05-23 04:18:00,
2013-05-23 00:23:00,72.6,67.8,29.77,South,173,0.0,0.0,85,0.00,,---,0.00,VWS V14.00,2013-05-23 04:23:00,
2013-05-23 00:28:00,72.8,68.4,29.77,SW,222,0.0,0.0,86,0.00,,---,0.00,VWS V14.00,2013-05-23 04:28:00,
2013-05-23 00:33:00,72.8,68.4,29.77,SSW,211,0.0,0.0,86,0.00,,---,0.00,VWS V14.00,2013-05-23 04:33:00,
2013-05-23 00:38:00,73.0,68.6,29.77,SW,214,0.0,0.0,86,0.00,,---,0.00,VWS V14.00,2013-05-23 04:38:00,
2013-05-23 00:43:00,73.1,68.7,29.77,SW,214,0.0,0.0,86,0.00,,---,0.00,VWS V14.00,2013-05-23 04:43:00,
2013-05-23 00:49:00,73.1,68.7,29.76,SW,214,0.0,0.0,86,0.00,,---,0.00,VWS V14.00,2013-05-23 04:49:00,
2013-05-23 00:54:00,73.3,69.2,29.76,South,169,0.0,0.0,87,0.00,,---,0.00,VWS V14.00,2013-05-23 04:54:00,
2013-05-23 00:59:00,73.3,68.9,29.76,SSE,154,1.0,2.0,86,0.00,,---,0.00,VWS V14.00,2013-05-23 04:59:00,
2013-05-23 01:04:00,73.2,68.8,29.76,SSE,162,0.0,0.0,86,0.00,,---,0.00,VWS V14.00,2013-05-23 05:04:00,
2013-05-23 01:09:00,73.2,68.8,29.76,South,169,0.0,0.0,86,0.00,,---,0.00,VWS V14.00,2013-05-23 05:09:00,
2013-05-23 01:14:00,73.2,69.1,29.76,SSE,166,0.0,0.0,87,0.00,,---,0.00,VWS V14.00,2013-05-23 05:14:00,
2013-05-23 01:19:00,73.2,69.1,29.76,SSE,148,0.0,0.0,87,0.00,,---,0.00,VWS V14.00,2013-05-23 05:19:00,
2013-05-23 01:24:00,73.3,69.2,29.76,SSE,148,0.0,0.0,87,0.00,,---,0.00,VWS V14.00,2013-05-23 05:24:00,
2013-05-23 01:29:00,73.4,69.3,29.76,SW,224,0.0,0.0,87,0.00,,---,0.00,VWS V14.00,2013-05-23 05:29:00,
2013-05-23 01:34:00,73.5,69.4,29.76,SSE,165,1.0,2.0,87,0.00,,---,0.00,VWS V14.00,2013-05-23 05:34:00,
2013-05-23 01:39:00,73.4,69.3,29.76,SSE,150,4.0,4.0,87,0.00,,---,0.00,VWS V14.00,2013-05-23 05:39:00,
2013-05-23 01:44:00,73.4,69.3,29.75,SSE,163,2.0,4.0,87,0.00,,---,0.00,VWS V14.00,2013-05-23 05:44:00,
2013-05-23 01:49:00,73.2,69.1,29.75,SSE,151,2.0,3.0,87,0.00,,---,0.00,VWS V14.00,2013-05-23 05:49:00,
2013-05-23 01:55:00,72.9,69.1,29.75,SSE,158,2.0,4.0,88,0.00,,---,0.00,VWS V14.00,2013-05-23 05:55:00,
2013-05-23 02:00:00,72.7,68.9,29.75,South,190,6.0,6.0,88,0.00,,---,0.00,VWS V14.00,2013-05-23 06:00:00,
2013-05-23 02:05:00,72.4,68.7,29.75,SSE,167,4.0,5.0,88,0.00,,---,0.00,VWS V14.00,2013-05-23 06:05:00,
2013-05-23 02:10:00,72.2,68.8,29.75,South,174,5.0,6.0,89,0.00,,---,0.00,VWS V14.00,2013-05-23 06:10:00,
2013-05-23 02:15:00,72.1,68.7,29.74,SSW,196,3.0,4.0,89,0.00,,---,0.00,VWS V14.00,2013-05-23 06:15:00,
2013-05-23 02:20:00,71.9,68.8,29.74,SSE,165,3.0,6.0,90,0.00,,---,0.00,VWS V14.00,2013-05-23 06:20:00,
2013-05-23 02:25:00,71.9,68.8,29.74,South,181,4.0,7.0,90,0.00,,---,0.00,VWS V14.00,2013-05-23 06:25:00,
2013-05-23 02:30:00,71.7,68.6,29.74,SSE,167,4.0,7.0,90,0.00,,---,0.00,VWS V14.00,2013-05-23 06:30:00,
2013-05-23 02:35:00,71.6,68.5,29.74,SSE,166,7.0,7.0,90,0.00,,---,0.00,VWS V14.00,2013-05-23 06:35:00,
2013-05-23 02:40:00,71.6,68.5,29.74,South,190,6.0,8.0,90,0.00,,---,0.00,VWS V14.00,2013-05-23 06:40:00,
2013-05-23 02:45:00,71.5,68.4,29.74,South,181,5.0,6.0,90,0.00,,---,0.00,VWS V14.00,2013-05-23 06:45:00,
2013-05-23 02:50:00,71.5,68.4,29.74,SSE,154,3.0,5.0,90,0.00,,---,0.00,VWS V14.00,2013-05-23 06:50:00,
2013-05-23 02:55:00,71.5,68.4,29.74,South,170,3.0,3.0,90,0.00,,---,0.00,VWS V14.00,2013-05-23 06:55:00,
2013-05-23 03:00:00,71.5,68.4,29.74,South,172,2.0,3.0,90,0.00,,---,0.00,VWS V14.00,2013-05-23 07:00:00,
2013-05-23 03:06:00,71.4,68.3,29.74,SSW,209,2.0,5.0,90,0.00,,---,0.00,VWS V14.00,2013-05-23 07:06:00,
2013-05-23 03:11:00,71.3,68.2,29.74,South,188,0.0,2.0,90,0.00,,---,0.00,VWS V14.00,2013-05-23 07:11:00,
2013-05-23 03:16:00,71.2,68.1,29.74,SSE,153,0.0,0.0,90,0.00,,---,0.00,VWS V14.00,2013-05-23 07:16:00,
2013-05-23 03:21:00,71.1,68.0,29.74,SSE,153,2.0,3.0,90,0.00,,---,0.00,VWS V14.00,2013-05-23 07:21:00,
2013-05-23 03:26:00,71.1,68.3,29.74,SSE,162,1.0,3.0,91,0.00,,---,0.00,VWS V14.00,2013-05-23 07:26:00,
2013-05-23 03:31:00,71.1,68.3,29.74,SSE,165,0.0,0.0,91,0.00,,---,0.00,VWS V14.00,2013-05-23 07:31:00,
2013-05-23 03:36:00,71.1,68.3,29.74,South,186,2.0,3.0,91,0.00,,---,0.00,VWS V14.00,2013-05-23 07:36:00,
2013-05-23 03:41:00,71.2,68.1,29.74,South,179,3.0,4.0,90,0.00,,---,0.00,VWS V14.00,2013-05-23 07:41:00,
2013-05-23 03:46:00,71.3,68.2,29.74,South,180,2.0,4.0,90,0.00,,---,0.00,VWS V14.00,2013-05-23 07:46:00,
2013-05-23 03:52:00,71.4,68.3,29.75,SW,219,2.0,3.0,90,0.00,,---,0.00,VWS V14.00,2013-05-23 07:52:00,
2013-05-23 03:57:00,71.5,68.4,29.75,South,181,3.0,6.0,90,0.00,,---,0.00,VWS V14.00,2013-05-23 07:57:00,
2013-05-23 04:02:00,71.7,68.6,29.75,South,171,0.0,4.0,90,0.00,,---,0.00,VWS V14.00,2013-05-23 08:02:00,
2013-05-23 04:07:00,71.8,68.4,29.75,SSE,167,3.0,4.0,89,0.00,,---,0.00,VWS V14.00,2013-05-23 08:07:00,
2013-05-23 04:12:00,71.8,68.4,29.75,SSE,155,4.0,4.0,89,0.00,,---,0.00,VWS V14.00,2013-05-23 08:12:00,
2013-05-23 04:17:00,71.9,68.5,29.75,SSW,193,2.0,5.0,89,0.00,,---,0.00,VWS V14.00,2013-05-23 08:17:00,
2013-05-23 04:22:00,71.9,68.5,29.74,South,176,2.0,4.0,89,0.00,,---,0.00,VWS V14.00,2013-05-23 08:22:00,
2013-05-23 04:27:00,72.0,68.3,29.74,SW,224,3.0,6.0,88,0.00,,---,0.00,VWS V14.00,2013-05-23 08:27:00,
2013-05-23 04:32:00,72.0,68.3,29.74,SW,221,3.0,6.0,88,0.00,,---,0.00,VWS V14.00,2013-05-23 08:32:00,
2013-05-23 04:37:00,72.1,68.3,29.74,SSW,203,2.0,5.0,88,0.00,,---,0.00,VWS V14.00,2013-05-23 08:37:00,
2013-05-23 04:42:00,72.0,68.3,29.74,SSW,201,5.0,6.0,88,0.00,,---,0.00,VWS V14.00,2013-05-23 08:42:00,
2013-05-23 04:48:00,72.0,68.3,29.74,SSW,211,7.0,7.0,88,0.00,,---,0.00,VWS V14.00,2013-05-23 08:48:00,
2013-05-23 04:53:00,72.0,68.3,29.74,South,191,6.0,9.0,88,0.00,,---,0.00,VWS V14.00,2013-05-23 08:53:00,
2013-05-23 04:58:00,72.0,68.3,29.74,South,179,4.0,6.0,88,0.00,,---,0.00,VWS V14.00,2013-05-23 08:58:00,
2013-05-23 05:03:00,72.0,68.3,29.75,SSE,155,2.0,7.0,88,0.00,,---,0.00,VWS V14.00,2013-05-23 09:03:00,
2013-05-23 05:08:00,71.9,68.2,29.74,SW,214,2.0,5.0,88,0.00,,---,0.00,VWS V14.00,2013-05-23 09:08:00,
2013-05-23 05:13:00,71.8,68.4,29.75,SSE,165,4.0,6.0,89,0.00,,---,0.00,VWS V14.00,2013-05-23 09:13:00,
2013-05-23 05:18:00,71.8,68.4,29.75,SSE,167,0.0,5.0,89,0.00,,---,0.00,VWS V14.00,2013-05-23 09:18:00,
2013-05-23 05:23:00,71.7,68.3,29.75,SW,226,4.0,7.0,89,0.00,,---,0.00,VWS V14.00,2013-05-23 09:23:00,
2013-05-23 05:28:00,71.8,68.4,29.75,WSW,246,6.0,6.0,89,0.00,,---,0.00,VWS V14.00,2013-05-23 09:28:00,
2013-05-23 05:33:00,71.8,68.4,29.75,SW,215,5.0,8.0,89,0.00,,---,0.00,VWS V14.00,2013-05-23 09:33:00,
2013-05-23 05:38:00,71.8,68.4,29.76,South,183,2.0,5.0,89,0.00,,---,0.00,VWS V14.00,2013-05-23 09:38:00,
2013-05-23 05:43:00,71.8,68.4,29.76,SW,219,7.0,7.0,89,0.00,,---,0.00,VWS V14.00,2013-05-23 09:43:00,
2013-05-23 05:48:00,71.8,68.4,29.76,SW,221,1.0,7.0,89,0.00,,---,0.00,VWS V14.00,2013-05-23 09:48:00,
2013-05-23 05:53:00,71.8,68.4,29.76,WSW,241,2.0,4.0,89,0.00,,---,0.00,VWS V14.00,2013-05-23 09:53:00,
2013-05-23 05:58:00,71.8,68.4,29.77,South,184,2.0,4.0,89,0.00,,---,0.00,VWS V14.00,2013-05-23 09:58:00,
2013-05-23 06:03:00,71.8,68.4,29.76,SW,229,0.0,6.0,89,0.00,,---,0.00,VWS V14.00,2013-05-23 10:03:00,
2013-05-23 06:08:00,71.8,68.4,29.77,SW,232,1.0,4.0,89,0.00,,---,0.00,VWS V14.00,2013-05-23 10:08:00,
2013-05-23 06:13:00,71.8,68.4,29.77,SSW,205,1.0,2.0,89,0.00,,---,0.00,VWS V14.00,2013-05-23 10:13:00,
2013-05-23 06:18:00,71.8,68.4,29.77,West,277,0.0,0.0,89,0.00,,---,0.00,VWS V14.00,2013-05-23 10:18:00,
2013-05-23 06:24:00,71.8,68.4,29.77,South,191,3.0,5.0,89,0.00,,---,0.00,VWS V14.00,2013-05-23 10:24:00,
2013-05-23 06:29:00,71.8,68.4,29.78,SW,229,0.0,0.0,89,0.00,,---,0.00,VWS V14.00,2013-05-23 10:29:00,
2013-05-23 06:34:00,71.8,68.4,29.77,SSW,195,0.0,4.0,89,0.00,,---,0.00,VWS V14.00,2013-05-23 10:34:00,
2013-05-23 06:39:00,71.9,68.5,29.77,SW,215,0.0,1.0,89,0.00,,---,0.00,VWS V14.00,2013-05-23 10:39:00,
2013-05-23 06:44:00,71.9,68.5,29.78,SSE,157,0.0,2.0,89,0.00,,---,0.00,VWS V14.00,2013-05-23 10:44:00,
2013-05-23 06:49:00,71.9,68.5,29.77,SW,219,2.0,4.0,89,0.00,,---,0.00,VWS V14.00,2013-05-23 10:49:00,
2013-05-23 06:54:00,72.0,68.6,29.77,SE,127,2.0,4.0,89,0.00,,---,0.00,VWS V14.00,2013-05-23 10:54:00,
2013-05-23 06:59:00,72.1,68.3,29.78,SSE,159,2.0,5.0,88,0.00,,---,0.00,VWS V14.00,2013-05-23 10:59:00,
2013-05-23 07:04:00,72.3,68.6,29.78,SW,224,1.0,4.0,88,0.00,,---,0.00,VWS V14.00,2013-05-23 11:04:00,
2013-05-23 07:09:00,72.4,68.7,29.78,South,169,3.0,5.0,88,0.00,,---,0.00,VWS V14.00,2013-05-23 11:09:00,
2013-05-23 07:14:00,72.6,68.8,29.78,SSW,201,1.0,4.0,88,0.00,,---,0.00,VWS V14.00,2013-05-23 11:14:00,
2013-05-23 07:19:00,72.8,68.7,29.78,South,191,6.0,7.0,87,0.00,,---,0.00,VWS V14.00,2013-05-23 11:19:00,
2013-05-23 07:24:00,72.9,68.8,29.78,SW,226,1.0,6.0,87,0.00,,---,0.00,VWS V14.00,2013-05-23 11:24:00,
2013-05-23 07:30:00,72.9,68.8,29.78,SW,231,3.0,4.0,87,0.00,,---,0.00,VWS V14.00,2013-05-23 11:30:00,
2013-05-23 07:35:00,73.0,68.9,29.78,South,169,7.0,7.0,87,0.00,,---,0.00,VWS V14.00,2013-05-23 11:35:00,
2013-05-23 07:40:00,73.1,69.0,29.78,SW,217,3.0,5.0,87,0.00,,---,0.00,VWS V14.00,2013-05-23 11:40:00,
2013-05-23 07:45:00,73.2,69.1,29.78,SSW,196,2.0,4.0,87,0.00,,---,0.00,VWS V14.00,2013-05-23 11:45:00,
2013-05-23 07:50:00,73.2,69.1,29.78,SW,233,7.0,8.0,87,0.00,,---,0.00,VWS V14.00,2013-05-23 11:50:00,
2013-05-23 07:55:00,73.3,69.2,29.78,South,181,3.0,5.0,87,0.00,,---,0.00,VWS V14.00,2013-05-23 11:55:00,
2013-05-23 08:00:00,73.4,69.0,29.78,SSW,201,5.0,6.0,86,0.00,,---,0.00,VWS V14.00,2013-05-23 12:00:00,
2013-05-23 08:05:00,73.6,69.2,29.78,South,175,1.0,6.0,86,0.00,,---,0.00,VWS V14.00,2013-05-23 12:05:00,
2013-05-23 08:10:00,73.7,69.3,29.78,SSE,161,4.0,4.0,86,0.00,,---,0.00,VWS V14.00,2013-05-23 12:10:00,
2013-05-23 08:15:00,73.9,69.4,29.78,SW,217,4.0,6.0,86,0.00,,---,0.00,VWS V14.00,2013-05-23 12:15:00,
2013-05-23 08:20:00,73.9,69.1,29.78,SSW,200,3.0,5.0,85,0.00,,---,0.00,VWS V14.00,2013-05-23 12:20:00,
2013-05-23 08:25:00,73.8,69.3,29.78,SSW,208,0.0,5.0,86,0.00,,---,0.00,VWS V14.00,2013-05-23 12:25:00,
2013-05-23 08:30:00,73.9,69.4,29.78,SW,215,0.0,5.0,86,0.00,,---,0.00,VWS V14.00,2013-05-23 12:30:00,
2013-05-23 08:36:00,73.9,69.1,29.78,SSW,201,2.0,4.0,85,0.00,,---,0.00,VWS V14.00,2013-05-23 12:36:00,
2013-05-23 08:41:00,73.9,69.1,29.78,SW,236,2.0,4.0,85,0.00,,---,0.00,VWS V14.00,2013-05-23 12:41:00,
2013-05-23 08:46:00,74.1,69.3,29.78,South,186,2.0,8.0,85,0.00,,---,0.00,VWS V14.00,2013-05-23 12:46:00,
2013-05-23 08:51:00,74.2,69.4,29.78,SSE,162,3.0,5.0,85,0.00,,---,0.00,VWS V14.00,2013-05-23 12:51:00,
2013-05-23 08:56:00,74.2,69.4,29.79,West,267,3.0,6.0,85,0.00,,---,0.00,VWS V14.00,2013-05-23 12:56:00,
2013-05-23 09:01:00,74.3,69.5,29.78,SW,215,0.0,8.0,85,0.00,,---,0.00,VWS V14.00,2013-05-23 13:01:00,
2013-05-23 09:06:00,74.5,69.7,29.78,SSW,211,2.0,3.0,85,0.00,,---,0.00,VWS V14.00,2013-05-23 13:06:00,
2013-05-23 09:11:00,74.7,69.9,29.78,SW,224,0.0,4.0,85,0.00,,---,0.00,VWS V14.00,2013-05-23 13:11:00,
2013-05-23 09:16:00,74.8,69.7,29.78,SW,224,4.0,6.0,84,0.00,,---,0.00,VWS V14.00,2013-05-23 13:16:00,
2013-05-23 09:21:00,74.9,69.7,29.78,South,182,0.0,6.0,84,0.00,,---,0.00,VWS V14.00,2013-05-23 13:21:00,
2013-05-23 09:26:00,75.3,69.8,29.78,South,183,3.0,6.0,83,0.00,,---,0.00,VWS V14.00,2013-05-23 13:26:00,
2013-05-23 09:31:00,75.7,69.5,29.77,SW,233,3.0,6.0,81,0.00,,---,0.00,VWS V14.00,2013-05-23 13:31:00,
2013-05-23 09:37:00,76.4,69.8,29.77,SW,219,5.0,5.0,80,0.00,,---,0.00,VWS V14.00,2013-05-23 13:37:00,
2013-05-23 09:42:00,76.7,69.7,29.77,SSW,204,6.0,11.0,79,0.00,,---,0.00,VWS V14.00,2013-05-23 13:42:00,
2013-05-23 09:47:00,76.9,69.5,29.77,SW,214,5.0,9.0,78,0.00,,---,0.00,VWS V14.00,2013-05-23 13:47:00,
2013-05-23 09:52:00,77.5,69.3,29.77,SW,236,1.0,5.0,76,0.00,,---,0.00,VWS V14.00,2013-05-23 13:52:00,
2013-05-23 09:57:00,77.4,68.9,29.77,WSW,248,0.0,8.0,75,0.00,,---,0.00,VWS V14.00,2013-05-23 13:57:00,
2013-05-23 10:02:00,77.4,69.2,29.77,WSW,256,0.0,6.0,76,0.00,,---,0.00,VWS V14.00,2013-05-23 14:02:00,
2013-05-23 10:07:00,77.4,68.5,29.77,WSW,240,2.0,5.0,74,0.00,,---,0.00,VWS V14.00,2013-05-23 14:07:00,
2013-05-23 10:12:00,77.5,68.6,29.77,SSE,166,1.0,3.0,74,0.00,,---,0.00,VWS V14.00,2013-05-23 14:12:00,
2013-05-23 10:17:00,77.6,68.3,29.77,SW,219,2.0,10.0,73,0.00,,---,0.00,VWS V14.00,2013-05-23 14:17:00,
2013-05-23 10:22:00,77.9,68.6,29.78,SW,214,3.0,4.0,73,0.00,,---,0.00,VWS V14.00,2013-05-23 14:22:00,
2013-05-23 10:27:00,77.9,68.9,29.78,West,277,4.0,11.0,74,0.00,,---,0.00,VWS V14.00,2013-05-23 14:27:00,
2013-05-23 10:32:00,78.1,69.1,29.78,SSE,162,7.0,12.0,74,0.00,,---,0.00,VWS V14.00,2013-05-23 14:32:00,
2013-05-23 10:37:00,77.9,68.9,29.78,SSW,210,3.0,10.0,74,0.00,,---,0.00,VWS V14.00,2013-05-23 14:37:00,
2013-05-23 10:43:00,77.7,69.2,29.78,SSW,210,7.0,11.0,75,0.00,,---,0.00,VWS V14.00,2013-05-23 14:43:00,
2013-05-23 10:48:00,77.9,69.3,29.78,South,190,4.0,14.0,75,0.00,,---,0.00,VWS V14.00,2013-05-23 14:48:00,
2013-05-23 10:53:00,77.9,68.9,29.78,SSW,195,8.0,12.0,74,0.00,,---,0.00,VWS V14.00,2013-05-23 14:53:00,
2013-05-23 10:58:00,78.0,69.1,29.78,SW,236,9.0,12.0,74,0.00,,---,0.00,VWS V14.00,2013-05-23 14:58:00,
2013-05-23 11:03:00,77.9,68.9,29.78,SSW,195,8.0,11.0,74,0.00,,---,0.00,VWS V14.00,2013-05-23 15:03:00,
2013-05-23 11:08:00,77.7,69.2,29.78,West,269,4.0,9.0,75,0.00,,---,0.00,VWS V14.00,2013-05-23 15:08:00,
2013-05-23 11:13:00,77.8,69.2,29.77,South,176,8.0,9.0,75,0.00,,---,0.00,VWS V14.00,2013-05-23 15:13:00,
2013-05-23 11:18:00,78.0,69.4,29.77,SW,236,4.0,12.0,75,0.00,,---,0.00,VWS V14.00,2013-05-23 15:18:00,
2013-05-23 11:23:00,78.4,69.4,29.77,NNW,338,1.0,10.0,74,0.00,,---,0.00,VWS V14.00,2013-05-23 15:23:00,
2013-05-23 11:28:00,78.6,69.2,29.77,SSW,204,5.0,16.0,73,0.00,,---,0.00,VWS V14.00,2013-05-23 15:28:00,
2013-05-23 11:33:00,78.8,69.8,29.77,South,179,1.0,8.0,74,0.00,,---,0.00,VWS V14.00,2013-05-23 15:33:00,
2013-05-23 11:38:00,78.6,68.8,29.76,SW,226,10.0,10.0,72,0.00,,---,0.00,VWS V14.00,2013-05-23 15:38:00,
2013-05-23 11:43:00,78.7,69.3,29.76,West,259,4.0,12.0,73,0.00,,---,0.00,VWS V14.00,2013-05-23 15:43:00,
2013-05-23 11:48:00,79.0,70.0,29.76,WNW,293,8.0,9.0,74,0.00,,---,0.00,VWS V14.00,2013-05-23 15:48:00,
2013-05-23 11:53:00,77.7,69.9,29.76,West,273,1.0,4.0,77,0.00,,---,0.00,VWS V14.00,2013-05-23 15:53:00,
2013-05-23 11:59:00,76.9,70.6,29.75,WNW,295,2.0,3.0,81,0.00,,---,0.00,VWS V14.00,2013-05-23 15:59:00,
2013-05-23 12:04:00,76.2,70.7,29.75,SW,232,1.0,1.0,83,0.01,,---,0.01,VWS V14.00,2013-05-23 16:04:00,
2013-05-23 12:09:00,75.7,70.5,29.75,WNW,302,2.0,2.0,84,0.01,,---,0.01,VWS V14.00,2013-05-23 16:09:00,
2013-05-23 12:14:00,75.3,70.1,29.74,West,263,0.0,0.0,84,0.01,,---,0.01,VWS V14.00,2013-05-23 16:14:00,
2013-05-23 12:19:00,75.1,69.9,29.75,SW,229,6.0,6.0,84,0.01,,---,0.01,VWS V14.00,2013-05-23 16:19:00,
2013-05-23 12:24:00,74.7,69.9,29.74,WSW,246,3.0,5.0,85,0.02,,---,0.02,VWS V14.00,2013-05-23 16:24:00,
2013-05-23 12:29:00,74.5,70.0,29.74,WNW,300,3.0,3.0,86,0.02,,---,0.02,VWS V14.00,2013-05-23 16:29:00,
2013-05-23 12:34:00,74.2,69.8,29.75,West,265,4.0,13.0,86,0.02,,---,0.02,VWS V14.00,2013-05-23 16:34:00,
2013-05-23 12:39:00,72.6,68.5,29.75,NW,322,5.0,7.0,87,0.07,,---,0.07,VWS V14.00,2013-05-23 16:39:00,
2013-05-23 12:44:00,71.6,67.9,29.75,NW,305,6.0,7.0,88,0.07,,---,0.07,VWS V14.00,2013-05-23 16:44:00,
2013-05-23 12:49:00,70.7,67.3,29.75,WNW,303,7.0,11.0,89,0.08,,---,0.08,VWS V14.00,2013-05-23 16:49:00,
2013-05-23 12:54:00,70.2,67.4,29.75,NW,307,2.0,8.0,91,0.16,,---,0.16,VWS V14.00,2013-05-23 16:54:00,
2013-05-23 13:00:00,69.8,67.4,29.75,WSW,246,5.0,11.0,92,0.32,,---,0.32,VWS V14.00,2013-05-23 17:00:00,
2013-05-23 13:05:00,69.7,67.3,29.76,WNW,298,5.0,8.0,92,0.39,,---,0.40,VWS V14.00,2013-05-23 17:05:00,
2013-05-23 13:10:00,69.6,67.5,29.76,SSW,201,3.0,8.0,93,0.62,,---,0.63,VWS V14.00,2013-05-23 17:10:00,
2013-05-23 13:15:00,70.3,68.8,29.75,West,274,8.0,8.0,95,0.62,,---,0.63,VWS V14.00,2013-05-23 17:15:00,
2013-05-23 13:20:00,71.8,70.6,29.74,NW,320,2.0,7.0,96,0.62,,---,0.63,VWS V14.00,2013-05-23 17:20:00,
2013-05-23 13:25:00,72.6,70.8,29.74,WNW,288,2.0,5.0,94,0.61,,---,0.63,VWS V14.00,2013-05-23 17:25:00,
2013-05-23 13:30:00,73.5,71.7,29.74,West,272,5.0,7.0,94,0.61,,---,0.63,VWS V14.00,2013-05-23 17:30:00,
2013-05-23 13:35:00,74.7,72.2,29.74,WNW,290,2.0,6.0,92,0.61,,---,0.63,VWS V14.00,2013-05-23 17:35:00,
2013-05-23 13:40:00,76.0,73.5,29.74,NW,310,1.0,4.0,92,0.56,,---,0.63,VWS V14.00,2013-05-23 17:40:00,
2013-05-23 13:45:00,76.9,73.1,29.73,WNW,284,6.0,7.0,88,0.56,,---,0.63,VWS V14.00,2013-05-23 17:45:00,
2013-05-23 13:50:00,77.6,73.4,29.73,WNW,300,6.0,7.0,87,0.56,,---,0.63,VWS V14.00,2013-05-23 17:50:00,
2013-05-23 13:55:00,78.7,74.2,29.73,SSE,155,2.0,4.0,86,0.53,,---,0.63,VWS V14.00,2013-05-23 17:55:00,
2013-05-23 14:00:00,79.7,74.1,29.72,West,277,1.0,3.0,83,0.33,,---,0.63,VWS V14.00,2013-05-23 18:00:00,
2013-05-23 14:06:00,79.6,71.8,29.72,SSW,193,3.0,9.0,77,0.26,,---,0.63,VWS V14.00,2013-05-23 18:06:00,
2013-05-23 14:11:00,79.7,71.5,29.72,SSE,153,2.0,11.0,76,0.02,,---,0.63,VWS V14.00,2013-05-23 18:11:00,
2013-05-23 14:16:00,79.6,72.1,29.72,NW,307,0.0,11.0,78,0.00,,---,0.63,VWS V14.00,2013-05-23 18:16:00,
2013-05-23 14:21:00,79.4,71.2,29.71,SW,236,1.0,9.0,76,0.00,,---,0.63,VWS V14.00,2013-05-23 18:21:00,
2013-05-23 14:26:00,78.6,71.6,29.72,West,274,3.0,12.0,79,0.00,,---,0.63,VWS V14.00,2013-05-23 18:26:00,
2013-05-23 14:31:00,76.3,70.4,29.71,NNE,18,3.0,15.0,82,0.00,,---,0.63,VWS V14.00,2013-05-23 18:31:00,
2013-05-23 14:36:00,74.7,70.2,29.71,NW,323,7.0,11.0,86,0.06,,---,0.69,VWS V14.00,2013-05-23 18:36:00,
2013-05-23 14:41:00,73.4,69.6,29.71,NW,307,0.0,13.0,88,0.06,,---,0.69,VWS V14.00,2013-05-23 18:41:00,
2013-05-23 14:46:00,73.1,69.7,29.71,ESE,122,0.0,1.0,89,0.07,,---,0.70,VWS V14.00,2013-05-23 18:46:00,
2013-05-23 14:51:00,73.4,70.3,29.71,SE,132,2.0,4.0,90,0.07,,---,0.70,VWS V14.00,2013-05-23 18:51:00,
2013-05-23 14:56:00,73.3,70.2,29.71,SE,138,0.0,2.0,90,0.07,,---,0.70,VWS V14.00,2013-05-23 18:56:00,
2013-05-23 15:02:00,73.3,70.2,29.71,North,1,2.0,2.0,90,0.21,,---,0.84,VWS V14.00,2013-05-23 19:02:00,
2013-05-23 15:07:00,72.9,69.8,29.72,East,90,0.0,3.0,90,0.24,,---,0.87,VWS V14.00,2013-05-23 19:07:00,
2013-05-23 15:12:00,72.7,69.9,29.72,ESE,113,0.0,2.0,91,0.25,,---,0.88,VWS V14.00,2013-05-23 19:12:00,
2013-05-23 15:17:00,73.2,70.7,29.72,SE,136,1.0,3.0,92,0.25,,---,0.88,VWS V14.00,2013-05-23 19:17:00,
2013-05-23 15:22:00,73.6,70.8,29.71,SE,138,0.0,1.0,91,0.25,,---,0.88,VWS V14.00,2013-05-23 19:22:00,
2013-05-23 15:27:00,74.1,71.0,29.71,East,91,2.0,7.0,90,0.25,,---,0.88,VWS V14.00,2013-05-23 19:27:00,
2013-05-23 15:32:00,74.2,71.1,29.70,SE,136,4.0,8.0,90,0.25,,---,0.88,VWS V14.00,2013-05-23 19:32:00,
2013-05-23 15:37:00,74.4,70.6,29.70,ESE,118,10.0,11.0,88,0.25,,---,0.88,VWS V14.00,2013-05-23 19:37:00,
2013-05-23 15:42:00,74.6,70.5,29.70,SSE,165,10.0,14.0,87,0.19,,---,0.88,VWS V14.00,2013-05-23 19:42:00,
2013-05-23 15:47:00,74.2,70.1,29.69,SSE,166,11.0,16.0,87,0.19,,---,0.88,VWS V14.00,2013-05-23 19:47:00,
2013-05-23 15:52:00,73.5,69.7,29.70,SSE,163,6.0,18.0,88,0.18,,---,0.88,VWS V14.00,2013-05-23 19:52:00,
2013-05-23 15:58:00,72.6,69.2,29.69,SE,141,7.0,15.0,89,0.18,,---,0.88,VWS V14.00,2013-05-23 19:58:00,
2013-05-23 16:03:00,72.0,69.2,29.72,West,260,2.0,11.0,91,0.17,,---,0.88,VWS V14.00,2013-05-23 20:03:00,
2013-05-23 16:08:00,71.6,69.2,29.72,WNW,296,0.0,6.0,92,0.13,,---,1.00,VWS V14.00,2013-05-23 20:08:00,
2013-05-23 16:13:00,71.3,68.9,29.73,WNW,293,2.0,10.0,92,0.24,,---,1.11,VWS V14.00,2013-05-23 20:13:00,
2013-05-23 16:18:00,70.9,68.8,29.72,SW,215,0.0,11.0,93,0.34,,---,1.22,VWS V14.00,2013-05-23 20:18:00,
2013-05-23 16:23:00,70.6,68.5,29.71,SSE,165,4.0,6.0,93,0.35,,---,1.23,VWS V14.00,2013-05-23 20:23:00,
2013-05-23 16:28:00,70.6,68.5,29.71,SSW,196,1.0,7.0,93,0.35,,---,1.23,VWS V14.00,2013-05-23 20:28:00,
2013-05-23 16:33:00,70.9,68.8,29.71,South,177,2.0,6.0,93,0.36,,---,1.24,VWS V14.00,2013-05-23 20:33:00,
2013-05-23 16:38:00,71.1,69.0,29.70,South,174,5.0,6.0,93,0.37,,---,1.25,VWS V14.00,2013-05-23 20:38:00,
2013-05-23 16:43:00,71.5,69.4,29.70,SSW,194,0.0,0.0,93,0.37,,---,1.25,VWS V14.00,2013-05-23 20:43:00,
2013-05-23 16:48:00,71.9,69.8,29.71,WSW,252,0.0,1.0,93,0.37,,---,1.25,VWS V14.00,2013-05-23 20:48:00,
2013-05-23 16:53:00,72.0,69.9,29.71,NW,322,2.0,3.0,93,0.37,,---,1.25,VWS V14.00,2013-05-23 20:53:00,
2013-05-23 16:58:00,72.0,69.6,29.71,North,355,3.0,3.0,92,0.37,,---,1.25,VWS V14.00,2013-05-23 20:58:00,
2013-05-23 17:04:00,71.8,69.7,29.70,NE,37,0.0,0.0,93,0.37,,---,1.25,VWS V14.00,2013-05-23 21:04:00,
2013-05-23 17:09:00,71.8,69.3,29.71,ESE,105,0.0,0.0,92,0.23,,---,1.25,VWS V14.00,2013-05-23 21:09:00,
2013-05-23 17:14:00,71.7,69.6,29.70,ENE,65,4.0,4.0,93,0.12,,---,1.25,VWS V14.00,2013-05-23 21:14:00,
2013-05-23 17:19:00,72.0,70.2,29.70,ESE,118,5.0,5.0,94,0.03,,---,1.25,VWS V14.00,2013-05-23 21:19:00,
2013-05-23 17:24:00,72.3,70.2,29.70,SSW,198,4.0,7.0,93,0.02,,---,1.25,VWS V14.00,2013-05-23 21:24:00,
2013-05-23 17:29:00,72.5,70.4,29.70,WSW,241,0.0,0.0,93,0.02,,---,1.25,VWS V14.00,2013-05-23 21:29:00,
2013-05-23 17:34:00,72.6,70.2,29.71,WNW,286,0.0,0.0,92,0.01,,---,1.25,VWS V14.00,2013-05-23 21:34:00,
2013-05-23 17:39:00,72.2,70.1,29.71,WNW,288,0.0,0.0,93,0.00,,---,1.25,VWS V14.00,2013-05-23 21:39:00,
2013-05-23 17:44:00,72.0,69.6,29.71,WNW,288,0.0,0.0,92,0.00,,---,1.25,VWS V14.00,2013-05-23 21:44:00,
2013-05-23 17:49:00,72.0,69.9,29.71,WNW,301,0.0,0.0,93,0.00,,---,1.25,VWS V14.00,2013-05-23 21:49:00,
2013-05-23 17:54:00,71.9,69.8,29.71,NW,319,2.0,3.0,93,0.00,,---,1.25,VWS V14.00,2013-05-23 21:54:00,
2013-05-23 17:59:00,71.9,69.8,29.71,West,267,0.0,1.0,93,0.00,,---,1.25,VWS V14.00,2013-05-23 21:59:00,
2013-05-23 18:05:00,72.1,70.3,29.71,West,267,0.0,0.0,94,0.00,,---,1.25,VWS V14.00,2013-05-23 22:05:00,
2013-05-23 18:10:00,72.5,70.7,29.71,West,270,0.0,0.0,94,0.00,,---,1.25,VWS V14.00,2013-05-23 22:10:00,
2013-05-23 18:15:00,72.4,70.3,29.71,WNW,302,0.0,0.0,93,0.00,,---,1.25,VWS V14.00,2013-05-23 22:15:00,
2013-05-23 18:20:00,72.2,70.1,29.71,South,170,1.0,2.0,93,0.00,,---,1.25,VWS V14.00,2013-05-23 22:20:00,
2013-05-23 18:25:00,72.3,70.2,29.71,WSW,253,0.0,0.0,93,0.00,,---,1.25,VWS V14.00,2013-05-23 22:25:00,
2013-05-23 18:30:00,72.4,70.3,29.70,WSW,256,0.0,0.0,93,0.00,,---,1.25,VWS V14.00,2013-05-23 22:30:00,
2013-05-23 18:35:00,72.2,70.1,29.70,WSW,255,0.0,0.0,93,0.00,,---,1.25,VWS V14.00,2013-05-23 22:35:00,
2013-05-23 18:40:00,72.0,69.6,29.69,West,260,0.0,0.0,92,0.00,,---,1.25,VWS V14.00,2013-05-23 22:40:00,
2013-05-23 18:45:00,72.0,69.6,29.69,West,260,0.0,0.0,92,0.00,,---,1.25,VWS V14.00,2013-05-23 22:45:00,
2013-05-23 18:50:00,72.0,69.6,29.69,NNW,328,0.0,0.0,92,0.00,,---,1.25,VWS V14.00,2013-05-23 22:50:00,
2013-05-23 18:55:00,71.9,69.4,29.69,NNE,12,0.0,0.0,92,0.00,,---,1.25,VWS V14.00,2013-05-23 22:55:00,
2013-05-23 19:00:00,71.8,69.3,29.69,North,11,0.0,0.0,92,0.00,,---,1.25,VWS V14.00,2013-05-23 23:00:00,
2013-05-23 19:05:00,71.7,69.6,29.69,NNE,12,0.0,0.0,93,0.00,,---,1.25,VWS V14.00,2013-05-23 23:05:00,
2013-05-23 19:11:00,71.8,69.7,29.69,ESE,123,0.0,0.0,93,0.00,,---,1.25,VWS V14.00,2013-05-23 23:11:00,
2013-05-23 19:16:00,71.9,70.1,29.69,ESE,106,1.0,2.0,94,0.00,,---,1.25,VWS V14.00,2013-05-23 23:16:00,
2013-05-23 19:21:00,71.6,69.5,29.69,East,101,2.0,4.0,93,0.00,,---,1.25,VWS V14.00,2013-05-23 23:21:00,
2013-05-23 19:26:00,71.5,69.4,29.69,South,191,4.0,4.0,93,0.01,,---,1.26,VWS V14.00,2013-05-23 23:26:00,
2013-05-23 19:31:00,71.4,69.3,29.69,South,184,6.0,7.0,93,0.06,,---,1.31,VWS V14.00,2013-05-23 23:31:00,
2013-05-23 19:36:00,70.9,68.8,29.70,SE,141,2.0,8.0,93,0.08,,---,1.33,VWS V14.00,2013-05-23 23:36:00,
2013-05-23 19:41:00,70.4,68.6,29.70,SSW,204,7.0,10.0,94,0.13,,---,1.38,VWS V14.00,2013-05-23 23:41:00,
2013-05-23 19:46:00,70.1,68.3,29.69,South,172,3.0,7.0,94,0.13,,---,1.38,VWS V14.00,2013-05-23 23:46:00,
2013-05-23 19:51:00,69.9,68.1,29.69,South,188,3.0,9.0,94,0.13,,---,1.38,VWS V14.00,2013-05-23 23:51:00,
2013-05-23 19:56:00,69.7,67.9,29.69,SE,139,2.0,8.0,94,0.13,,---,1.38,VWS V14.00,2013-05-23 23:56:00,
2013-05-23 20:01:00,69.6,68.1,29.69,ESE,122,3.0,5.0,95,0.13,,---,1.38,VWS V14.00,2013-05-24 00:01:00,
2013-05-23 20:06:00,69.5,68.0,29.69,SSE,165,4.0,4.0,95,0.13,,---,1.38,VWS V14.00,2013-05-24 00:06:00,
2013-05-23 20:12:00,69.3,67.8,29.69,South,172,6.0,7.0,95,0.13,,---,1.38,VWS V14.00,2013-05-24 00:12:00,
2013-05-23 20:17:00,69.2,67.7,29.69,SE,137,4.0,5.0,95,0.13,,---,1.38,VWS V14.00,2013-05-24 00:17:00,
2013-05-23 20:22:00,69.1,67.6,29.69,South,183,4.0,5.0,95,0.14,,---,1.39,VWS V14.00,2013-05-24 00:22:00,
2013-05-23 20:27:00,69.0,67.5,29.70,SSW,208,3.0,6.0,95,0.14,,---,1.39,VWS V14.00,2013-05-24 00:27:00,
2013-05-23 20:32:00,69.0,67.5,29.70,SSE,154,2.0,5.0,95,0.12,,---,1.39,VWS V14.00,2013-05-24 00:32:00,
2013-05-23 20:37:00,68.9,67.4,29.70,SSE,153,3.0,4.0,95,0.07,,---,1.39,VWS V14.00,2013-05-24 00:37:00,
2013-05-23 20:42:00,68.9,67.4,29.70,SE,125,3.0,4.0,95,0.04,,---,1.40,VWS V14.00,2013-05-24 00:42:00,
2013-05-23 20:47:00,68.9,67.4,29.70,SE,136,1.0,3.0,95,0.02,,---,1.40,VWS V14.00,2013-05-24 00:47:00,
2013-05-23 20:52:00,68.8,67.3,29.70,South,169,2.0,3.0,95,0.02,,---,1.40,VWS V14.00,2013-05-24 00:52:00,
2013-05-23 20:57:00,68.7,67.2,29.70,SE,127,1.0,4.0,95,0.02,,---,1.40,VWS V14.00,2013-05-24 00:57:00,
2013-05-23 21:02:00,68.6,67.1,29.70,SE,142,4.0,4.0,95,0.02,,---,1.40,VWS V14.00,2013-05-24 01:02:00,
2013-05-23 21:07:00,68.6,67.1,29.69,SSE,149,4.0,7.0,95,0.02,,---,1.40,VWS V14.00,2013-05-24 01:07:00,
2013-05-23 21:12:00,68.6,67.1,29.69,South,170,5.0,5.0,95,0.02,,---,1.40,VWS V14.00,2013-05-24 01:12:00,
2013-05-23 21:17:00,68.6,67.1,29.69,South,173,2.0,4.0,95,0.02,,---,1.40,VWS V14.00,2013-05-24 01:17:00,
2013-05-23 21:22:00,68.5,66.7,29.69,South,172,6.0,9.0,94,0.02,,---,1.40,VWS V14.00,2013-05-24 01:22:00,
2013-05-23 21:28:00,68.5,66.7,29.69,SE,143,2.0,7.0,94,0.01,,---,1.40,VWS V14.00,2013-05-24 01:28:00,
2013-05-23 21:33:00,68.5,66.7,29.68,SW,219,5.0,8.0,94,0.01,,---,1.40,VWS V14.00,2013-05-24 01:33:00,
2013-05-23 21:38:00,68.5,66.7,29.68,South,186,6.0,7.0,94,0.01,,---,1.40,VWS V14.00,2013-05-24 01:38:00,
2013-05-23 21:43:00,68.5,66.7,29.69,South,179,2.0,6.0,94,0.01,,---,1.40,VWS V14.00,2013-05-24 01:43:00,
2013-05-23 21:48:00,68.4,66.6,29.69,SW,215,3.0,6.0,94,0.00,,---,1.40,VWS V14.00,2013-05-24 01:48:00,
2013-05-23 21:53:00,68.4,66.6,29.69,South,179,4.0,5.0,94,0.00,,---,1.40,VWS V14.00,2013-05-24 01:53:00,
2013-05-23 21:58:00,68.4,66.6,29.69,SW,214,3.0,5.0,94,0.00,,---,1.40,VWS V14.00,2013-05-24 01:58:00,
2013-05-23 22:03:00,68.4,66.6,29.69,South,179,2.0,4.0,94,0.00,,---,1.40,VWS V14.00,2013-05-24 02:03:00,
2013-05-23 22:08:00,68.3,66.5,29.69,SE,127,1.0,4.0,94,0.00,,---,1.40,VWS V14.00,2013-05-24 02:08:00,
2013-05-23 22:13:00,68.3,66.5,29.69,South,173,0.0,2.0,94,0.00,,---,1.40,VWS V14.00,2013-05-24 02:13:00,
2013-05-23 22:18:00,68.3,66.5,29.69,South,172,0.0,0.0,94,0.00,,---,1.40,VWS V14.00,2013-05-24 02:18:00,
2013-05-23 22:23:00,68.3,66.5,29.68,SSE,148,0.0,0.0,94,0.00,,---,1.40,VWS V14.00,2013-05-24 02:23:00,
2013-05-23 22:28:00,68.2,66.4,29.68,ESE,115,0.0,1.0,94,0.00,,---,1.40,VWS V14.00,2013-05-24 02:28:00,
2013-05-23 22:33:00,68.2,66.4,29.68,SSE,167,2.0,5.0,94,0.00,,---,1.40,VWS V14.00,2013-05-24 02:33:00,
2013-05-23 22:38:00,68.2,66.4,29.68,SSE,156,0.0,5.0,94,0.00,,---,1.40,VWS V14.00,2013-05-24 02:38:00,
2013-05-23 22:43:00,68.2,66.4,29.68,SSE,149,2.0,3.0,94,0.00,,---,1.40,VWS V14.00,2013-05-24 02:43:00,
2013-05-23 22:48:00,68.2,66.4,29.68,SE,146,2.0,4.0,94,0.00,,---,1.40,VWS V14.00,2013-05-24 02:48:00,
2013-05-23 22:53:00,68.2,66.4,29.67,SSE,153,2.0,2.0,94,0.00,,---,1.40,VWS V14.00,2013-05-24 02:53:00,
2013-05-23 22:58:00,68.3,66.5,29.67,SE,125,2.0,2.0,94,0.00,,---,1.40,VWS V14.00,2013-05-24 02:58:00,
2013-05-23 23:04:00,68.2,66.4,29.67,South,186,2.0,3.0,94,0.00,,---,1.40,VWS V14.00,2013-05-24 03:04:00,
2013-05-23 23:09:00,68.2,66.4,29.67,SSW,194,4.0,7.0,94,0.00,,---,1.40,VWS V14.00,2013-05-24 03:09:00,
2013-05-23 23:14:00,68.2,66.4,29.66,SSE,162,2.0,3.0,94,0.00,,---,1.40,VWS V14.00,2013-05-24 03:14:00,
2013-05-23 23:19:00,68.2,66.4,29.66,SE,144,4.0,6.0,94,0.00,,---,1.40,VWS V14.00,2013-05-24 03:19:00,
2013-05-23 23:24:00,68.1,66.0,29.66,SSE,152,5.0,8.0,93,0.00,,---,1.40,VWS V14.00,2013-05-24 03:24:00,
2013-05-23 23:29:00,68.1,66.0,29.66,SSE,163,4.0,6.0,93,0.00,,---,1.40,VWS V14.00,2013-05-24 03:29:00,
2013-05-23 23:34:00,68.0,65.9,29.66,South,186,6.0,6.0,93,0.00,,---,1.40,VWS V14.00,2013-05-24 03:34:00,
2013-05-23 23:39:00,68.0,65.9,29.66,SSE,162,3.0,4.0,93,0.00,,---,1.40,VWS V14.00,2013-05-24 03:39:00,
2013-05-23 23:44:00,68.0,65.9,29.66,SSE,148,2.0,3.0,93,0.00,,---,1.40,VWS V14.00,2013-05-24 03:44:00,
2013-05-23 23:49:00,67.8,65.7,29.65,South,169,3.0,4.0,93,0.00,,---,1.40,VWS V14.00,2013-05-24 03:49:00,
2013-05-23 23:54:00,67.7,65.9,29.66,SSW,193,3.0,3.0,94,0.00,,---,1.40,VWS V14.00,2013-05-24 03:54:00,
2013-05-23 23:59:00,67.6,65.8,29.65,SSW,212,4.0,5.0,94,0.00,,---,1.40,VWS V14.00,2013-05-24 03:59:00,